sensor_id;sensor_type;location;lat;lon;timestamp;temperature;humidity
49579;DHT22;35483;50.828;3.228;2022-07-29T00:00:04;20.50;58.60
49579;DHT22;35483;50.828;3.228;2022-07-29T00:02:30;20.40;58.60
49579;DHT22;35483;50.828;3.228;2022-07-29T00:04:57;20.40;58.70
49579;DHT22;35483;50.828;3.228;2022-07-29T00:07:23;20.40;58.70
49579;DHT22;35483;50.828;3.228;2022-07-29T00:09:50;20.40;58.60
49579;DHT22;35483;50.828;3.228;2022-07-29T00:12:16;20.40;58.60
49579;DHT22;35483;50.828;3.228;2022-07-29T00:14:41;20.40;58.50
49579;DHT22;35483;50.828;3.228;2022-07-29T00:17:07;20.40;58.70
49579;DHT22;35483;50.828;3.228;2022-07-29T00:19:33;20.30;58.70
49579;DHT22;35483;50.828;3.228;2022-07-29T00:22:00;20.30;58.70
49579;DHT22;35483;50.828;3.228;2022-07-29T00:24:26;20.30;58.70
49579;DHT22;35483;50.828;3.228;2022-07-29T00:26:52;20.20;58.80
49579;DHT22;35483;50.828;3.228;2022-07-29T00:29:17;20.20;59.10
49579;DHT22;35483;50.828;3.228;2022-07-29T00:31:43;20.10;59.00
49579;DHT22;35483;50.828;3.228;2022-07-29T00:34:09;20.00;59.10
49579;DHT22;35483;50.828;3.228;2022-07-29T00:36:55;20.00;59.20
49579;DHT22;35483;50.828;3.228;2022-07-29T00:39:21;19.90;59.30
49579;DHT22;35483;50.828;3.228;2022-07-29T00:41:47;19.80;59.50
49579;DHT22;35483;50.828;3.228;2022-07-29T00:44:14;19.70;59.60
49579;DHT22;35483;50.828;3.228;2022-07-29T00:46:40;19.70;59.60
49579;DHT22;35483;50.828;3.228;2022-07-29T00:49:05;19.60;59.70
49579;DHT22;35483;50.828;3.228;2022-07-29T00:51:37;19.60;59.70
49579;DHT22;35483;50.828;3.228;2022-07-29T00:54:04;19.50;59.80
49579;DHT22;35483;50.828;3.228;2022-07-29T00:56:31;19.60;60.00
49579;DHT22;35483;50.828;3.228;2022-07-29T00:58:57;19.40;60.00
49579;DHT22;35483;50.828;3.228;2022-07-29T01:01:23;19.40;60.00
49579;DHT22;35483;50.828;3.228;2022-07-29T01:03:49;19.40;59.70
49579;DHT22;35483;50.828;3.228;2022-07-29T01:06:19;19.40;59.90
49579;DHT22;35483;50.828;3.228;2022-07-29T01:08:48;19.40;60.30
49579;DHT22;35483;50.828;3.228;2022-07-29T01:11:16;19.30;60.30
49579;DHT22;35483;50.828;3.228;2022-07-29T01:13:43;19.30;60.20
49579;DHT22;35483;50.828;3.228;2022-07-29T01:16:15;19.20;59.90
49579;DHT22;35483;50.828;3.228;2022-07-29T01:18:46;19.20;60.40
49579;DHT22;35483;50.828;3.228;2022-07-29T01:26:49;19.10;60.70
49579;DHT22;35483;50.828;3.228;2022-07-29T01:32:02;19.10;60.80
49579;DHT22;35483;50.828;3.228;2022-07-29T01:37:20;19.00;62.00
49579;DHT22;35483;50.828;3.228;2022-07-29T01:39:49;18.90;63.10
49579;DHT22;35483;50.828;3.228;2022-07-29T01:42:42;18.90;60.70
49579;DHT22;35483;50.828;3.228;2022-07-29T01:45:30;18.90;61.70
49579;DHT22;35483;50.828;3.228;2022-07-29T01:48:05;18.90;63.30
49579;DHT22;35483;50.828;3.228;2022-07-29T01:50:42;18.90;61.60
49579;DHT22;35483;50.828;3.228;2022-07-29T01:53:10;18.80;61.20
49579;DHT22;35483;50.828;3.228;2022-07-29T01:55:42;18.80;60.60
49579;DHT22;35483;50.828;3.228;2022-07-29T01:58:12;18.80;60.80
49579;DHT22;35483;50.828;3.228;2022-07-29T02:00:39;18.80;61.20
49579;DHT22;35483;50.828;3.228;2022-07-29T02:03:09;18.70;61.00
49579;DHT22;35483;50.828;3.228;2022-07-29T02:05:38;18.70;61.80
49579;DHT22;35483;50.828;3.228;2022-07-29T02:08:04;18.60;61.10
49579;DHT22;35483;50.828;3.228;2022-07-29T02:10:33;18.60;61.20
49579;DHT22;35483;50.828;3.228;2022-07-29T02:13:01;18.50;61.90
49579;DHT22;35483;50.828;3.228;2022-07-29T02:15:29;18.50;61.40
49579;DHT22;35483;50.828;3.228;2022-07-29T02:18:02;18.50;61.20
49579;DHT22;35483;50.828;3.228;2022-07-29T02:20:30;18.50;61.90
49579;DHT22;35483;50.828;3.228;2022-07-29T02:22:58;18.50;61.30
49579;DHT22;35483;50.828;3.228;2022-07-29T02:25:26;18.50;61.60
49579;DHT22;35483;50.828;3.228;2022-07-29T02:27:53;18.40;61.60
49579;DHT22;35483;50.828;3.228;2022-07-29T02:30:22;18.40;61.50
49579;DHT22;35483;50.828;3.228;2022-07-29T02:32:49;18.40;61.50
49579;DHT22;35483;50.828;3.228;2022-07-29T02:35:17;18.40;61.40
49579;DHT22;35483;50.828;3.228;2022-07-29T02:37:44;18.40;61.40
49579;DHT22;35483;50.828;3.228;2022-07-29T02:40:31;18.40;61.40
49579;DHT22;35483;50.828;3.228;2022-07-29T02:42:58;18.40;61.30
49579;DHT22;35483;50.828;3.228;2022-07-29T02:45:25;18.30;61.30
49579;DHT22;35483;50.828;3.228;2022-07-29T02:47:51;18.30;61.20
49579;DHT22;35483;50.828;3.228;2022-07-29T02:50:30;18.30;61.30
49579;DHT22;35483;50.828;3.228;2022-07-29T02:53:05;18.30;62.90
49579;DHT22;35483;50.828;3.228;2022-07-29T02:55:37;18.20;61.80
49579;DHT22;35483;50.828;3.228;2022-07-29T03:00:33;18.20;61.80
49579;DHT22;35483;50.828;3.228;2022-07-29T03:03:04;18.10;61.40
49579;DHT22;35483;50.828;3.228;2022-07-29T03:05:32;18.10;61.80
49579;DHT22;35483;50.828;3.228;2022-07-29T03:08:02;18.10;61.50
49579;DHT22;35483;50.828;3.228;2022-07-29T03:10:29;18.10;62.30
49579;DHT22;35483;50.828;3.228;2022-07-29T03:12:56;18.10;61.70
49579;DHT22;35483;50.828;3.228;2022-07-29T03:15:22;18.00;61.60
49579;DHT22;35483;50.828;3.228;2022-07-29T03:17:49;18.00;61.70
49579;DHT22;35483;50.828;3.228;2022-07-29T03:20:16;18.00;61.90
49579;DHT22;35483;50.828;3.228;2022-07-29T03:22:42;18.00;61.90
49579;DHT22;35483;50.828;3.228;2022-07-29T03:25:16;17.90;61.80
49579;DHT22;35483;50.828;3.228;2022-07-29T03:27:43;17.90;61.90
49579;DHT22;35483;50.828;3.228;2022-07-29T03:30:11;17.90;62.00
49579;DHT22;35483;50.828;3.228;2022-07-29T03:32:37;17.90;62.20
49579;DHT22;35483;50.828;3.228;2022-07-29T03:35:04;17.80;62.20
49579;DHT22;35483;50.828;3.228;2022-07-29T03:37:30;17.80;62.20
49579;DHT22;35483;50.828;3.228;2022-07-29T03:39:57;17.70;62.30
49579;DHT22;35483;50.828;3.228;2022-07-29T03:42:30;17.70;62.40
49579;DHT22;35483;50.828;3.228;2022-07-29T03:44:57;17.70;63.80
49579;DHT22;35483;50.828;3.228;2022-07-29T03:47:26;17.60;62.60
49579;DHT22;35483;50.828;3.228;2022-07-29T03:49:56;17.60;62.60
49579;DHT22;35483;50.828;3.228;2022-07-29T03:52:24;17.60;62.90
49579;DHT22;35483;50.828;3.228;2022-07-29T03:54:51;17.60;62.50
49579;DHT22;35483;50.828;3.228;2022-07-29T03:57:19;17.60;62.40
49579;DHT22;35483;50.828;3.228;2022-07-29T03:59:46;17.60;62.60
49579;DHT22;35483;50.828;3.228;2022-07-29T04:02:12;17.60;62.40
49579;DHT22;35483;50.828;3.228;2022-07-29T04:04:38;17.60;62.40
49579;DHT22;35483;50.828;3.228;2022-07-29T04:07:05;17.60;62.30
49579;DHT22;35483;50.828;3.228;2022-07-29T04:09:31;17.60;62.30
49579;DHT22;35483;50.828;3.228;2022-07-29T04:11:57;17.60;62.80
49579;DHT22;35483;50.828;3.228;2022-07-29T04:14:22;17.50;63.30
49579;DHT22;35483;50.828;3.228;2022-07-29T04:16:48;17.40;62.90
49579;DHT22;35483;50.828;3.228;2022-07-29T04:19:14;17.40;62.90
49579;DHT22;35483;50.828;3.228;2022-07-29T04:21:42;17.40;63.00
49579;DHT22;35483;50.828;3.228;2022-07-29T04:24:08;17.40;63.20
49579;DHT22;35483;50.828;3.228;2022-07-29T04:26:35;17.40;63.00
49579;DHT22;35483;50.828;3.228;2022-07-29T04:29:01;17.40;62.80
49579;DHT22;35483;50.828;3.228;2022-07-29T04:31:27;17.40;62.90
49579;DHT22;35483;50.828;3.228;2022-07-29T04:33:52;17.50;63.00
49579;DHT22;35483;50.828;3.228;2022-07-29T04:36:18;17.50;63.00
49579;DHT22;35483;50.828;3.228;2022-07-29T04:38:44;17.50;62.80
49579;DHT22;35483;50.828;3.228;2022-07-29T04:41:09;17.50;63.00
49579;DHT22;35483;50.828;3.228;2022-07-29T04:43:36;17.50;62.80
49579;DHT22;35483;50.828;3.228;2022-07-29T04:46:05;17.60;62.90
49579;DHT22;35483;50.828;3.228;2022-07-29T04:48:31;17.60;63.10
49579;DHT22;35483;50.828;3.228;2022-07-29T04:50:57;17.60;63.20
49579;DHT22;35483;50.828;3.228;2022-07-29T04:53:25;17.60;63.00
49579;DHT22;35483;50.828;3.228;2022-07-29T04:55:50;17.60;64.20
49579;DHT22;35483;50.828;3.228;2022-07-29T04:58:16;17.70;63.00
49579;DHT22;35483;50.828;3.228;2022-07-29T05:00:42;17.70;62.90
49579;DHT22;35483;50.828;3.228;2022-07-29T05:03:10;17.80;63.00
49579;DHT22;35483;50.828;3.228;2022-07-29T05:05:37;17.80;63.30
49579;DHT22;35483;50.828;3.228;2022-07-29T05:08:02;18.00;62.90
49579;DHT22;35483;50.828;3.228;2022-07-29T05:10:28;18.10;62.60
49579;DHT22;35483;50.828;3.228;2022-07-29T05:13:00;18.30;62.20
49579;DHT22;35483;50.828;3.228;2022-07-29T05:15:26;18.50;63.50
49579;DHT22;35483;50.828;3.228;2022-07-29T05:17:51;18.60;62.60
49579;DHT22;35483;50.828;3.228;2022-07-29T05:20:17;18.80;61.90
49579;DHT22;35483;50.828;3.228;2022-07-29T05:22:44;18.90;62.00
49579;DHT22;35483;50.828;3.228;2022-07-29T05:25:10;18.90;62.20
49579;DHT22;35483;50.828;3.228;2022-07-29T05:27:36;18.90;62.10
49579;DHT22;35483;50.828;3.228;2022-07-29T05:30:02;18.90;62.40
49579;DHT22;35483;50.828;3.228;2022-07-29T05:32:28;18.90;62.10
49579;DHT22;35483;50.828;3.228;2022-07-29T05:34:54;19.10;62.30
49579;DHT22;35483;50.828;3.228;2022-07-29T05:37:20;19.20;62.50
49579;DHT22;35483;50.828;3.228;2022-07-29T05:39:46;19.20;62.30
49579;DHT22;35483;50.828;3.228;2022-07-29T05:42:12;19.30;62.40
49579;DHT22;35483;50.828;3.228;2022-07-29T05:44:39;19.40;62.20
49579;DHT22;35483;50.828;3.228;2022-07-29T05:47:05;19.50;61.80
49579;DHT22;35483;50.828;3.228;2022-07-29T05:49:32;19.60;61.70
49579;DHT22;35483;50.828;3.228;2022-07-29T05:51:59;19.60;61.60
49579;DHT22;35483;50.828;3.228;2022-07-29T05:54:26;19.60;61.90
49579;DHT22;35483;50.828;3.228;2022-07-29T05:56:54;19.50;61.80
49579;DHT22;35483;50.828;3.228;2022-07-29T05:59:21;19.50;62.20
49579;DHT22;35483;50.828;3.228;2022-07-29T06:01:47;19.50;61.90
49579;DHT22;35483;50.828;3.228;2022-07-29T06:04:13;19.50;62.10
49579;DHT22;35483;50.828;3.228;2022-07-29T06:06:42;19.50;62.30
49579;DHT22;35483;50.828;3.228;2022-07-29T06:09:08;19.50;62.40
49579;DHT22;35483;50.828;3.228;2022-07-29T06:11:35;19.60;62.00
49579;DHT22;35483;50.828;3.228;2022-07-29T06:14:01;19.70;62.30
49579;DHT22;35483;50.828;3.228;2022-07-29T06:16:30;19.80;62.20
49579;DHT22;35483;50.828;3.228;2022-07-29T06:18:56;19.80;62.40
49579;DHT22;35483;50.828;3.228;2022-07-29T06:21:22;19.80;62.20
49579;DHT22;35483;50.828;3.228;2022-07-29T06:23:49;19.80;62.20
49579;DHT22;35483;50.828;3.228;2022-07-29T06:26:15;19.80;62.80
49579;DHT22;35483;50.828;3.228;2022-07-29T06:28:41;19.70;62.60
49579;DHT22;35483;50.828;3.228;2022-07-29T06:31:07;19.70;62.50
49579;DHT22;35483;50.828;3.228;2022-07-29T06:33:33;19.80;62.10
49579;DHT22;35483;50.828;3.228;2022-07-29T06:36:00;19.80;62.40
49579;DHT22;35483;50.828;3.228;2022-07-29T06:38:26;19.80;62.40
49579;DHT22;35483;50.828;3.228;2022-07-29T06:40:52;19.90;62.60
49579;DHT22;35483;50.828;3.228;2022-07-29T06:43:30;19.90;62.30
49579;DHT22;35483;50.828;3.228;2022-07-29T06:46:00;20.00;62.40
49579;DHT22;35483;50.828;3.228;2022-07-29T06:48:26;20.00;62.40
49579;DHT22;35483;50.828;3.228;2022-07-29T06:50:52;20.00;62.50
49579;DHT22;35483;50.828;3.228;2022-07-29T06:53:19;20.10;62.40
49579;DHT22;35483;50.828;3.228;2022-07-29T06:55:44;20.10;62.40
49579;DHT22;35483;50.828;3.228;2022-07-29T06:58:10;20.10;62.20
49579;DHT22;35483;50.828;3.228;2022-07-29T07:00:42;20.20;62.00
49579;DHT22;35483;50.828;3.228;2022-07-29T07:03:09;20.30;63.60
49579;DHT22;35483;50.828;3.228;2022-07-29T07:05:35;20.30;62.20
49579;DHT22;35483;50.828;3.228;2022-07-29T07:08:00;20.30;62.10
49579;DHT22;35483;50.828;3.228;2022-07-29T07:10:27;20.30;62.10
49579;DHT22;35483;50.828;3.228;2022-07-29T07:12:54;20.30;62.10
49579;DHT22;35483;50.828;3.228;2022-07-29T07:15:20;20.40;62.20
49579;DHT22;35483;50.828;3.228;2022-07-29T07:17:49;20.50;62.10
49579;DHT22;35483;50.828;3.228;2022-07-29T07:20:15;20.50;61.90
49579;DHT22;35483;50.828;3.228;2022-07-29T07:22:42;20.60;62.20
49579;DHT22;35483;50.828;3.228;2022-07-29T07:25:07;20.60;62.10
49579;DHT22;35483;50.828;3.228;2022-07-29T07:27:34;20.60;62.00
49579;DHT22;35483;50.828;3.228;2022-07-29T07:30:02;20.70;61.80
49579;DHT22;35483;50.828;3.228;2022-07-29T07:32:29;20.70;61.90
49579;DHT22;35483;50.828;3.228;2022-07-29T07:34:54;20.70;61.90
49579;DHT22;35483;50.828;3.228;2022-07-29T07:37:20;20.70;61.90
49579;DHT22;35483;50.828;3.228;2022-07-29T07:39:46;20.80;61.80
49579;DHT22;35483;50.828;3.228;2022-07-29T07:42:12;20.80;62.10
49579;DHT22;35483;50.828;3.228;2022-07-29T07:44:39;20.80;62.00
49579;DHT22;35483;50.828;3.228;2022-07-29T07:47:05;20.90;61.80
49579;DHT22;35483;50.828;3.228;2022-07-29T07:49:31;21.00;62.10
49579;DHT22;35483;50.828;3.228;2022-07-29T07:51:56;21.00;61.80
49579;DHT22;35483;50.828;3.228;2022-07-29T07:54:22;21.10;61.70
49579;DHT22;35483;50.828;3.228;2022-07-29T07:56:48;21.20;61.90
49579;DHT22;35483;50.828;3.228;2022-07-29T07:59:15;21.20;61.90
49579;DHT22;35483;50.828;3.228;2022-07-29T08:01:41;21.20;61.60
49579;DHT22;35483;50.828;3.228;2022-07-29T08:04:08;21.20;62.10
49579;DHT22;35483;50.828;3.228;2022-07-29T08:06:34;21.20;62.10
49579;DHT22;35483;50.828;3.228;2022-07-29T08:09:04;21.20;62.10
49579;DHT22;35483;50.828;3.228;2022-07-29T08:11:31;21.30;62.00
49579;DHT22;35483;50.828;3.228;2022-07-29T08:13:57;21.40;61.90
49579;DHT22;35483;50.828;3.228;2022-07-29T08:16:23;21.50;61.60
49579;DHT22;35483;50.828;3.228;2022-07-29T08:18:50;21.50;61.50
49579;DHT22;35483;50.828;3.228;2022-07-29T08:21:17;21.60;61.40
49579;DHT22;35483;50.828;3.228;2022-07-29T08:23:45;21.60;61.60
49579;DHT22;35483;50.828;3.228;2022-07-29T08:26:13;21.70;61.80
49579;DHT22;35483;50.828;3.228;2022-07-29T08:28:40;21.80;61.60
49579;DHT22;35483;50.828;3.228;2022-07-29T08:31:07;21.90;61.70
49579;DHT22;35483;50.828;3.228;2022-07-29T08:33:33;22.00;61.60
49579;DHT22;35483;50.828;3.228;2022-07-29T08:35:59;22.00;61.40
49579;DHT22;35483;50.828;3.228;2022-07-29T08:38:27;22.00;61.40
49579;DHT22;35483;50.828;3.228;2022-07-29T08:40:54;22.10;61.50
49579;DHT22;35483;50.828;3.228;2022-07-29T08:43:20;22.10;61.20
49579;DHT22;35483;50.828;3.228;2022-07-29T08:45:50;22.10;61.20
49579;DHT22;35483;50.828;3.228;2022-07-29T08:48:20;22.20;61.20
49579;DHT22;35483;50.828;3.228;2022-07-29T08:50:47;22.20;61.20
49579;DHT22;35483;50.828;3.228;2022-07-29T08:53:15;22.30;61.30
49579;DHT22;35483;50.828;3.228;2022-07-29T08:55:43;22.30;61.20
49579;DHT22;35483;50.828;3.228;2022-07-29T08:58:10;22.40;61.00
49579;DHT22;35483;50.828;3.228;2022-07-29T09:00:38;22.40;61.00
49579;DHT22;35483;50.828;3.228;2022-07-29T09:03:06;22.50;60.70
49579;DHT22;35483;50.828;3.228;2022-07-29T09:05:34;22.50;60.60
49579;DHT22;35483;50.828;3.228;2022-07-29T09:08:01;22.50;60.60
49579;DHT22;35483;50.828;3.228;2022-07-29T09:10:27;22.60;60.50
49579;DHT22;35483;50.828;3.228;2022-07-29T09:12:54;22.70;60.40
49579;DHT22;35483;50.828;3.228;2022-07-29T09:15:21;22.90;60.90
49579;DHT22;35483;50.828;3.228;2022-07-29T09:17:49;23.00;60.10
49579;DHT22;35483;50.828;3.228;2022-07-29T09:20:18;23.20;60.10
49579;DHT22;35483;50.828;3.228;2022-07-29T09:22:45;23.30;60.00
49579;DHT22;35483;50.828;3.228;2022-07-29T09:25:31;23.50;59.80
49579;DHT22;35483;50.828;3.228;2022-07-29T09:28:08;23.60;59.80
49579;DHT22;35483;50.828;3.228;2022-07-29T09:30:35;23.80;58.60
49579;DHT22;35483;50.828;3.228;2022-07-29T09:33:03;23.80;59.20
49579;DHT22;35483;50.828;3.228;2022-07-29T09:35:29;23.80;59.50
49579;DHT22;35483;50.828;3.228;2022-07-29T09:37:56;23.90;59.30
49579;DHT22;35483;50.828;3.228;2022-07-29T09:40:27;23.90;59.30
49579;DHT22;35483;50.828;3.228;2022-07-29T09:42:53;24.00;59.00
49579;DHT22;35483;50.828;3.228;2022-07-29T09:45:30;24.00;59.20
49579;DHT22;35483;50.828;3.228;2022-07-29T09:47:57;24.00;58.00
49579;DHT22;35483;50.828;3.228;2022-07-29T09:50:36;24.00;59.00
49579;DHT22;35483;50.828;3.228;2022-07-29T09:53:02;24.00;57.90
49579;DHT22;35483;50.828;3.228;2022-07-29T09:55:29;24.10;58.90
49579;DHT22;35483;50.828;3.228;2022-07-29T09:58:14;24.10;58.70
49579;DHT22;35483;50.828;3.228;2022-07-29T10:00:45;24.00;56.10
49579;DHT22;35483;50.828;3.228;2022-07-29T10:03:14;24.10;58.20
49579;DHT22;35483;50.828;3.228;2022-07-29T10:05:41;24.10;58.70
49579;DHT22;35483;50.828;3.228;2022-07-29T10:08:08;24.10;58.70
49579;DHT22;35483;50.828;3.228;2022-07-29T10:10:39;24.10;58.60
49579;DHT22;35483;50.828;3.228;2022-07-29T10:13:13;24.10;58.30
49579;DHT22;35483;50.828;3.228;2022-07-29T10:15:41;24.10;58.20
49579;DHT22;35483;50.828;3.228;2022-07-29T10:18:12;24.10;58.40
49579;DHT22;35483;50.828;3.228;2022-07-29T10:20:38;24.20;58.50
49579;DHT22;35483;50.828;3.228;2022-07-29T10:23:04;24.10;58.70
49579;DHT22;35483;50.828;3.228;2022-07-29T10:25:31;24.00;58.50
49579;DHT22;35483;50.828;3.228;2022-07-29T10:27:57;24.00;58.60
49579;DHT22;35483;50.828;3.228;2022-07-29T10:30:25;24.10;58.70
49579;DHT22;35483;50.828;3.228;2022-07-29T10:36:52;24.10;56.20
49579;DHT22;35483;50.828;3.228;2022-07-29T10:42:19;24.10;54.40
49579;DHT22;35483;50.828;3.228;2022-07-29T10:44:47;24.10;57.30
49579;DHT22;35483;50.828;3.228;2022-07-29T10:47:25;24.10;58.30
49579;DHT22;35483;50.828;3.228;2022-07-29T10:50:03;24.20;58.10
49579;DHT22;35483;50.828;3.228;2022-07-29T10:55:36;24.40;57.70
49579;DHT22;35483;50.828;3.228;2022-07-29T10:58:30;24.40;56.80
49579;DHT22;35483;50.828;3.228;2022-07-29T11:00:56;24.40;56.40
49579;DHT22;35483;50.828;3.228;2022-07-29T11:06:07;24.70;54.60
49579;DHT22;35483;50.828;3.228;2022-07-29T11:08:35;24.80;57.90
49579;DHT22;35483;50.828;3.228;2022-07-29T11:16:14;25.20;57.70
49579;DHT22;35483;50.828;3.228;2022-07-29T11:21:40;25.30;55.00
49579;DHT22;35483;50.828;3.228;2022-07-29T11:24:37;25.30;57.50
49579;DHT22;35483;50.828;3.228;2022-07-29T11:27:17;25.40;55.80
49579;DHT22;35483;50.828;3.228;2022-07-29T11:29:54;25.50;50.90
49579;DHT22;35483;50.828;3.228;2022-07-29T11:32:21;25.60;57.00
49579;DHT22;35483;50.828;3.228;2022-07-29T11:34:48;25.70;57.00
49579;DHT22;35483;50.828;3.228;2022-07-29T11:37:16;25.80;57.00
49579;DHT22;35483;50.828;3.228;2022-07-29T11:39:43;26.00;56.60
49579;DHT22;35483;50.828;3.228;2022-07-29T11:47:25;26.60;55.90
49579;DHT22;35483;50.828;3.228;2022-07-29T11:49:53;26.60;56.50
49579;DHT22;35483;50.828;3.228;2022-07-29T11:52:20;26.60;56.40
49579;DHT22;35483;50.828;3.228;2022-07-29T11:54:50;26.70;56.20
49579;DHT22;35483;50.828;3.228;2022-07-29T11:57:19;26.60;55.00
49579;DHT22;35483;50.828;3.228;2022-07-29T11:59:46;26.70;56.00
49579;DHT22;35483;50.828;3.228;2022-07-29T12:02:13;26.50;56.40
49579;DHT22;35483;50.828;3.228;2022-07-29T12:07:15;26.50;53.50
49579;DHT22;35483;50.828;3.228;2022-07-29T12:09:49;26.30;56.50
49579;DHT22;35483;50.828;3.228;2022-07-29T12:12:16;26.20;51.70
49579;DHT22;35483;50.828;3.228;2022-07-29T12:14:42;26.00;54.20
49579;DHT22;35483;50.828;3.228;2022-07-29T12:17:32;26.00;57.00
49579;DHT22;35483;50.828;3.228;2022-07-29T12:20:02;26.20;52.90
49579;DHT22;35483;50.828;3.228;2022-07-29T12:22:34;26.30;56.60
49579;DHT22;35483;50.828;3.228;2022-07-29T12:25:08;26.40;54.70
49579;DHT22;35483;50.828;3.228;2022-07-29T12:27:34;26.50;54.50
49579;DHT22;35483;50.828;3.228;2022-07-29T12:30:06;26.60;50.60
49579;DHT22;35483;50.828;3.228;2022-07-29T12:32:40;26.70;56.20
49579;DHT22;35483;50.828;3.228;2022-07-29T12:35:07;26.90;51.10
49579;DHT22;35483;50.828;3.228;2022-07-29T12:37:35;26.90;55.30
49579;DHT22;35483;50.828;3.228;2022-07-29T12:40:03;27.00;56.60
49579;DHT22;35483;50.828;3.228;2022-07-29T12:42:30;27.10;55.90
49579;DHT22;35483;50.828;3.228;2022-07-29T12:44:56;27.20;55.90
49579;DHT22;35483;50.828;3.228;2022-07-29T12:47:22;27.20;55.60
49579;DHT22;35483;50.828;3.228;2022-07-29T12:49:49;27.20;56.00
49579;DHT22;35483;50.828;3.228;2022-07-29T12:52:30;27.10;55.70
49579;DHT22;35483;50.828;3.228;2022-07-29T12:54:56;27.10;55.80
49579;DHT22;35483;50.828;3.228;2022-07-29T12:57:22;27.20;55.80
49579;DHT22;35483;50.828;3.228;2022-07-29T13:02:29;27.10;55.50
49579;DHT22;35483;50.828;3.228;2022-07-29T13:04:58;27.20;55.70
49579;DHT22;35483;50.828;3.228;2022-07-29T13:07:29;27.30;55.40
49579;DHT22;35483;50.828;3.228;2022-07-29T13:10:20;27.40;52.30
49579;DHT22;35483;50.828;3.228;2022-07-29T13:15:32;27.50;52.20
49579;DHT22;35483;50.828;3.228;2022-07-29T13:17:58;27.60;55.30
49579;DHT22;35483;50.828;3.228;2022-07-29T13:20:27;27.60;55.80
49579;DHT22;35483;50.828;3.228;2022-07-29T13:22:58;27.60;55.80
49579;DHT22;35483;50.828;3.228;2022-07-29T13:25:28;27.60;55.50
49579;DHT22;35483;50.828;3.228;2022-07-29T13:27:55;27.40;51.00
49579;DHT22;35483;50.828;3.228;2022-07-29T13:30:22;27.40;55.30
49579;DHT22;35483;50.828;3.228;2022-07-29T13:32:48;27.50;55.90
49579;DHT22;35483;50.828;3.228;2022-07-29T13:35:14;27.50;55.40
49579;DHT22;35483;50.828;3.228;2022-07-29T13:37:40;27.60;55.40
49579;DHT22;35483;50.828;3.228;2022-07-29T13:40:07;27.60;55.50
49579;DHT22;35483;50.828;3.228;2022-07-29T13:42:33;27.80;55.50
49579;DHT22;35483;50.828;3.228;2022-07-29T13:45:00;27.80;55.20
49579;DHT22;35483;50.828;3.228;2022-07-29T13:47:26;27.90;54.90
49579;DHT22;35483;50.828;3.228;2022-07-29T13:49:52;27.80;55.00
49579;DHT22;35483;50.828;3.228;2022-07-29T13:52:19;27.80;55.10
49579;DHT22;35483;50.828;3.228;2022-07-29T13:54:45;27.70;54.80
49579;DHT22;35483;50.828;3.228;2022-07-29T13:57:16;27.60;54.80
49579;DHT22;35483;50.828;3.228;2022-07-29T13:59:42;27.50;54.80
49579;DHT22;35483;50.828;3.228;2022-07-29T14:02:09;27.40;55.00
49579;DHT22;35483;50.828;3.228;2022-07-29T14:04:35;27.40;54.90
49579;DHT22;35483;50.828;3.228;2022-07-29T14:07:02;27.30;54.90
49579;DHT22;35483;50.828;3.228;2022-07-29T14:09:28;27.40;55.20
49579;DHT22;35483;50.828;3.228;2022-07-29T14:11:54;27.40;55.00
49579;DHT22;35483;50.828;3.228;2022-07-29T14:14:20;27.30;55.10
49579;DHT22;35483;50.828;3.228;2022-07-29T14:16:46;27.20;55.30
49579;DHT22;35483;50.828;3.228;2022-07-29T14:19:11;27.20;55.40
49579;DHT22;35483;50.828;3.228;2022-07-29T14:21:38;27.20;55.20
49579;DHT22;35483;50.828;3.228;2022-07-29T14:24:04;27.20;55.30
49579;DHT22;35483;50.828;3.228;2022-07-29T14:26:30;27.10;55.20
49579;DHT22;35483;50.828;3.228;2022-07-29T14:28:56;27.00;55.20
49579;DHT22;35483;50.828;3.228;2022-07-29T14:31:22;27.00;55.20
49579;DHT22;35483;50.828;3.228;2022-07-29T14:33:48;26.90;55.20
49579;DHT22;35483;50.828;3.228;2022-07-29T14:36:13;26.90;55.20
49579;DHT22;35483;50.828;3.228;2022-07-29T14:38:39;26.80;55.40
49579;DHT22;35483;50.828;3.228;2022-07-29T14:41:07;26.90;55.40
49579;DHT22;35483;50.828;3.228;2022-07-29T14:43:33;26.90;55.20
49579;DHT22;35483;50.828;3.228;2022-07-29T14:46:01;26.80;55.10
49579;DHT22;35483;50.828;3.228;2022-07-29T14:48:27;26.70;54.40
49579;DHT22;35483;50.828;3.228;2022-07-29T14:50:53;26.70;55.20
49579;DHT22;35483;50.828;3.228;2022-07-29T14:53:21;26.70;55.10
49579;DHT22;35483;50.828;3.228;2022-07-29T14:55:47;26.60;55.30
49579;DHT22;35483;50.828;3.228;2022-07-29T14:58:12;26.50;55.40
49579;DHT22;35483;50.828;3.228;2022-07-29T15:00:39;26.50;55.20
49579;DHT22;35483;50.828;3.228;2022-07-29T15:03:05;26.50;55.30
49579;DHT22;35483;50.828;3.228;2022-07-29T15:05:31;26.50;55.10
49579;DHT22;35483;50.828;3.228;2022-07-29T15:07:58;26.50;55.40
49579;DHT22;35483;50.828;3.228;2022-07-29T15:10:24;26.50;54.70
49579;DHT22;35483;50.828;3.228;2022-07-29T15:12:52;26.50;55.20
49579;DHT22;35483;50.828;3.228;2022-07-29T15:15:18;26.40;55.20
49579;DHT22;35483;50.828;3.228;2022-07-29T15:17:44;26.40;55.00
49579;DHT22;35483;50.828;3.228;2022-07-29T15:20:11;26.40;55.00
49579;DHT22;35483;50.828;3.228;2022-07-29T15:22:37;26.40;54.90
49579;DHT22;35483;50.828;3.228;2022-07-29T15:25:05;26.40;53.90
49579;DHT22;35483;50.828;3.228;2022-07-29T15:27:30;26.30;55.10
49579;DHT22;35483;50.828;3.228;2022-07-29T15:29:57;26.20;55.10
49579;DHT22;35483;50.828;3.228;2022-07-29T15:32:22;26.20;55.20
49579;DHT22;35483;50.828;3.228;2022-07-29T15:34:48;26.10;55.30
49579;DHT22;35483;50.828;3.228;2022-07-29T15:37:14;26.00;55.40
49579;DHT22;35483;50.828;3.228;2022-07-29T15:39:40;26.00;55.40
49579;DHT22;35483;50.828;3.228;2022-07-29T15:42:05;26.00;55.30
49579;DHT22;35483;50.828;3.228;2022-07-29T15:44:31;25.90;55.40
49579;DHT22;35483;50.828;3.228;2022-07-29T15:46:57;25.90;55.50
49579;DHT22;35483;50.828;3.228;2022-07-29T15:49:33;25.90;55.50
49579;DHT22;35483;50.828;3.228;2022-07-29T15:52:00;25.90;55.40
49579;DHT22;35483;50.828;3.228;2022-07-29T15:54:28;26.00;55.40
49579;DHT22;35483;50.828;3.228;2022-07-29T15:56:55;25.90;54.30
49579;DHT22;35483;50.828;3.228;2022-07-29T15:59:21;25.90;55.40
49579;DHT22;35483;50.828;3.228;2022-07-29T16:01:48;25.90;55.20
49579;DHT22;35483;50.828;3.228;2022-07-29T16:04:14;25.90;55.00
49579;DHT22;35483;50.828;3.228;2022-07-29T16:06:40;26.00;55.30
49579;DHT22;35483;50.828;3.228;2022-07-29T16:09:06;25.90;55.10
49579;DHT22;35483;50.828;3.228;2022-07-29T16:11:32;25.90;55.00
49579;DHT22;35483;50.828;3.228;2022-07-29T16:13:58;26.00;55.10
49579;DHT22;35483;50.828;3.228;2022-07-29T16:16:24;26.00;55.00
49579;DHT22;35483;50.828;3.228;2022-07-29T16:18:50;25.80;55.10
49579;DHT22;35483;50.828;3.228;2022-07-29T16:21:16;25.90;55.10